Time;durP1;ratioP1;P1;durP2;ratioP2;P2;SDS_P1;SDS_P2;PMS_P1;PMS_P2;Temp;Humidity;BMP_temperature;BMP_pressure;BME280_temperature;BME280_humidity;BME280_pressure;Samples;Min_cycle;Max_cycle;Signal;HPM_P1;HPM_P2
2022/03/19 00:00:36;;;;;;;16.58;5.75;;;;;;;4.45;66.13;103937.44;7400497;19;20479;-67
2022/03/19 00:03:04;;;;;;;17.83;5.63;;;;;;;4.46;65.16;103944.44;7399693;19;20026;-65
2022/03/19 00:05:32;;;;;;;14.07;4.95;;;;;;;4.48;65.43;103940.22;7398671;19;20022;-67
2022/03/19 00:08:00;;;;;;;12.00;4.80;;;;;;;4.49;65.47;103942.91;7398140;19;20018;-67
2022/03/19 00:10:31;;;;;;;14.23;4.80;;;;;;;4.48;65.73;103935.03;7400522;19;20022;-67
2022/03/19 00:13:00;;;;;;;12.25;4.30;;;;;;;4.52;65.67;103950.84;7398009;19;20019;-67
2022/03/19 00:15:28;;;;;;;13.35;4.82;;;;;;;4.53;65.91;103949.19;7397936;19;20379;-67
2022/03/19 00:17:57;;;;;;;13.38;4.45;;;;;;;4.56;65.73;103949.31;7397849;19;20032;-67
2022/03/19 00:20:25;;;;;;;9.95;4.40;;;;;;;4.60;65.80;103950.41;7400278;19;20037;-68
2022/03/19 00:22:54;;;;;;;16.00;4.40;;;;;;;4.62;66.04;103949.66;7398830;19;20500;-67
2022/03/19 00:25:22;;;;;;;18.33;4.88;;;;;;;4.64;65.83;103944.53;7400188;19;20027;-67
2022/03/19 00:27:53;;;;;;;14.85;4.15;;;;;;;4.65;66.27;103942.03;7400089;19;20018;-67
2022/03/19 00:30:21;;;;;;;13.82;4.15;;;;;;;4.67;66.07;103943.00;7400339;19;20022;-67
2022/03/19 00:32:49;;;;;;;9.25;3.70;;;;;;;4.68;66.04;103943.91;7397399;19;20023;-67
2022/03/19 00:35:17;;;;;;;13.32;4.78;;;;;;;4.69;66.08;103940.50;7397308;19;20015;-67
2022/03/19 00:37:46;;;;;;;14.82;4.45;;;;;;;4.68;66.26;103936.13;7399625;19;20026;-67
2022/03/19 00:40:16;;;;;;;14.07;4.22;;;;;;;4.68;65.91;103942.19;7399568;19;20383;-67
2022/03/19 00:42:44;;;;;;;14.00;3.63;;;;;;;4.67;66.26;103932.59;7398937;19;20039;-67
2022/03/19 00:45:15;;;;;;;14.30;4.45;;;;;;;4.67;66.31;103948.22;7397126;19;20018;-67
2022/03/19 00:47:43;;;;;;;12.43;3.80;;;;;;;4.67;66.34;103940.41;7397417;19;20018;-67
2022/03/19 00:50:18;;;;;;;17.73;4.63;;;;;;;4.67;66.49;103943.00;7397161;19;20014;-67
2022/03/19 00:52:46;;;;;;;9.40;3.42;;;;;;;4.66;66.24;103945.53;7398373;19;20035;-67
2022/03/19 00:55:14;;;;;;;17.30;4.38;;;;;;;4.66;66.19;103943.84;7397517;19;20022;-67
2022/03/19 00:57:44;;;;;;;15.77;3.58;;;;;;;4.64;66.06;103942.84;7398910;19;20010;-66
2022/03/19 01:00:17;;;;;;;16.77;4.47;;;;;;;4.63;66.07;103943.66;7398431;19;20022;-67
2022/03/19 01:02:46;;;;;;;11.02;3.97;;;;;;;4.62;66.17;103947.06;7396908;19;20035;-67
2022/03/19 01:05:16;;;;;;;13.82;4.03;;;;;;;4.59;66.46;103946.91;7396258;19;20471;-66
2022/03/19 01:07:46;;;;;;;15.38;5.13;;;;;;;4.55;66.29;103937.16;7398740;19;20018;-67
2022/03/19 01:10:15;;;;;;;16.08;4.35;;;;;;;4.55;66.03;103943.25;7394727;19;20045;-67
2022/03/19 01:12:43;;;;;;;15.02;4.07;;;;;;;4.54;66.50;103946.66;7396394;19;20011;-67
2022/03/19 01:15:12;;;;;;;15.90;3.97;;;;;;;4.49;66.32;103936.81;7396337;19;20018;-66
2022/03/19 01:17:43;;;;;;;11.50;3.70;;;;;;;4.49;66.72;103942.03;7398399;19;20019;-67
2022/03/19 01:20:13;;;;;;;14.15;3.75;;;;;;;4.42;66.37;103938.16;7398751;19;20027;-66
2022/03/19 01:22:43;;;;;;;12.07;3.50;;;;;;;4.44;66.31;103935.69;7398294;19;20035;-66
2022/03/19 01:25:13;;;;;;;14.88;4.00;;;;;;;4.40;66.30;103939.81;7396242;19;20018;-67
2022/03/19 01:27:43;;;;;;;9.98;3.25;;;;;;;4.36;66.26;103936.13;7396596;19;20019;-67
2022/03/19 01:30:14;;;;;;;13.25;3.58;;;;;;;4.36;66.19;103935.22;7397990;19;20015;-67
2022/03/19 01:32:46;;;;;;;17.30;3.80;;;;;;;4.33;66.28;103935.94;7397420;19;20014;-67
2022/03/19 01:35:16;;;;;;;9.25;3.28;;;;;;;4.30;65.95;103927.13;7396807;19;20486;-67
2022/03/19 01:37:44;;;;;;;12.77;3.53;;;;;;;4.27;65.98;103933.00;7397757;19;20023;-67
2022/03/19 01:40:13;;;;;;;14.77;4.15;;;;;;;4.23;66.07;103929.38;7397638;19;20014;-67
2022/03/19 01:42:43;;;;;;;9.55;3.50;;;;;;;4.19;66.10;103924.78;7395590;19;20022;-67
2022/03/19 01:45:13;;;;;;;18.65;4.35;;;;;;;4.15;66.04;103930.63;7395594;19;20014;-67
2022/03/19 01:47:41;;;;;;;11.00;3.33;;;;;;;4.12;66.20;103922.69;7395552;19;20015;-67
2022/03/19 01:50:21;;;;;;;14.57;3.92;;;;;;;4.06;66.59;103925.81;7394667;19;20022;-67
2022/03/19 01:52:56;;;;;;;15.82;4.35;;;;;;;4.02;66.46;103916.06;7396909;19;20022;-67
2022/03/19 01:55:26;;;;;;;11.60;3.63;;;;;;;3.99;66.55;103920.19;7395190;19;20043;-67
2022/03/19 01:57:55;;;;;;;10.25;3.70;;;;;;;3.96;66.29;103917.44;7397153;19;20022;-67
2022/03/19 02:00:25;;;;;;;12.43;3.95;;;;;;;3.91;66.42;103912.84;7396552;19;20352;-67
2022/03/19 02:02:55;;;;;;;10.88;3.83;;;;;;;3.87;66.46;103908.28;7394977;19;20019;-67
2022/03/19 02:05:26;;;;;;;10.88;3.67;;;;;;;3.84;66.72;103912.41;7395091;19;20029;-67
2022/03/19 02:07:55;;;;;;;9.13;3.95;;;;;;;3.81;66.58;103907.06;7395436;19;20018;-67
2022/03/19 02:10:26;;;;;;;14.60;3.33;;;;;;;3.77;66.85;103910.25;7396469;19;20421;-66
2022/03/19 02:12:55;;;;;;;8.82;3.03;;;;;;;3.73;66.78;103906.63;7397960;19;20018;-67
2022/03/19 02:15:24;;;;;;;15.05;4.03;;;;;;;3.70;66.55;103901.22;7394626;19;20073;-67
2022/03/19 02:17:52;;;;;;;20.27;4.38;;;;;;;3.65;66.57;103895.78;7396415;19;20018;-67
2022/03/19 02:20:20;;;;;;;11.30;3.92;;;;;;;3.62;66.83;103895.59;7396291;19;20030;-67
2022/03/19 02:25:43;;;;;;;15.05;3.83;;;;;;;3.54;67.07;103892.56;7391030;19;20066;-67
2022/03/19 02:28:11;;;;;;;14.68;3.72;;;;;;;3.50;66.75;103894.88;7394642;19;20026;-67
2022/03/19 02:30:41;;;;;;;11.75;3.58;;;;;;;3.47;66.80;103889.53;7394233;19;20015;-67
2022/03/19 02:33:10;;;;;;;12.30;3.70;;;;;;;3.43;67.09;103891.03;7395024;19;20019;-67
2022/03/19 02:35:38;;;;;;;13.80;4.00;;;;;;;3.39;67.05;103884.78;7393751;19;20373;-67
2022/03/19 02:38:06;;;;;;;13.77;3.25;;;;;;;3.37;66.86;103880.31;7395741;19;20022;-67
2022/03/19 02:40:34;;;;;;;13.88;3.47;;;;;;;3.31;66.93;103875.66;7394209;19;20078;-67
2022/03/19 02:43:05;;;;;;;14.02;4.40;;;;;;;3.28;67.76;103872.88;7394802;19;20018;-67
2022/03/19 02:45:33;;;;;;;14.15;3.53;;;;;;;3.21;67.37;103873.31;7395821;19;20019;-67
2022/03/19 02:48:01;;;;;;;13.00;4.32;;;;;;;3.14;67.77;103873.75;7395498;19;20019;-67
2022/03/19 02:50:31;;;;;;;18.60;4.40;;;;;;;3.07;68.20;103873.41;7394162;19;20483;-67
2022/03/19 02:53:01;;;;;;;12.48;4.05;;;;;;;3.01;68.39;103867.84;7393508;19;20045;-67
2022/03/19 02:55:33;;;;;;;10.75;3.92;;;;;;;2.95;68.58;103862.28;7394350;19;20021;-67
2022/03/19 02:58:05;;;;;;;11.30;3.50;;;;;;;2.90;68.74;103871.50;7394323;19;20019;-67
2022/03/19 03:00:34;;;;;;;12.15;4.13;;;;;;;2.85;68.67;103870.31;7393285;19;20387;-67
2022/03/19 03:03:04;;;;;;;12.95;4.05;;;;;;;2.81;68.72;103865.75;7394182;19;20022;-67
2022/03/19 03:05:33;;;;;;;10.57;3.63;;;;;;;2.76;68.84;103866.34;7395028;19;20025;-68
2022/03/19 03:08:01;;;;;;;17.67;4.13;;;;;;;2.73;68.71;103870.44;7393197;19;20027;-67
2022/03/19 03:10:30;;;;;;;17.23;4.20;;;;;;;2.70;68.97;103862.50;7393051;19;20022;-68
2022/03/19 03:12:59;;;;;;;14.02;4.13;;;;;;;2.66;68.96;103861.41;7392857;19;20026;-68
2022/03/19 03:15:29;;;;;;;13.82;3.78;;;;;;;2.61;69.55;103861.13;7392678;19;20035;-67
2022/03/19 03:17:58;;;;;;;11.50;4.13;;;;;;;2.57;69.38;103860.84;7393256;19;20047;-67
2022/03/19 03:20:26;;;;;;;10.98;4.38;;;;;;;2.52;69.78;103855.38;7392707;19;20019;-67
2022/03/19 03:22:54;;;;;;;11.50;3.95;;;;;;;2.48;69.62;103858.59;7393441;19;20417;-67
2022/03/19 03:25:23;;;;;;;12.20;4.75;;;;;;;2.46;69.70;103864.47;7394431;19;20037;-67
2022/03/19 03:27:51;;;;;;;11.32;4.40;;;;;;;2.41;70.00;103862.50;7394474;19;20035;-67
2022/03/19 03:30:20;;;;;;;13.18;4.18;;;;;;;2.36;70.18;103861.28;7391977;19;20412;-67
2022/03/19 03:32:51;;;;;;;11.55;3.92;;;;;;;2.31;70.43;103862.72;7394353;19;20090;-67
2022/03/19 03:35:25;;;;;;;13.30;4.57;;;;;;;2.26;70.62;103856.34;7399292;19;20019;-67
2022/03/19 03:37:53;;;;;;;13.05;4.75;;;;;;;2.20;70.75;103850.78;7402210;19;20022;-67
2022/03/19 03:40:21;;;;;;;14.80;4.88;;;;;;;2.17;70.62;103861.84;7398684;19;20035;-67
2022/03/19 03:42:49;;;;;;;11.63;3.97;;;;;;;2.11;71.45;103859.78;7400480;19;20022;-67
2022/03/19 03:45:18;;;;;;;14.45;4.43;;;;;;;2.08;71.28;103856.97;7398297;19;20444;-67
2022/03/19 03:47:46;;;;;;;15.27;4.07;;;;;;;2.04;71.55;103857.59;7400963;19;20417;-67
2022/03/19 03:50:16;;;;;;;16.25;4.75;;;;;;;1.99;71.79;103861.56;7400579;19;20022;-67
2022/03/19 03:52:44;;;;;;;15.07;4.47;;;;;;;1.95;71.95;103859.59;7400716;19;20018;-67
2022/03/19 03:55:13;;;;;;;11.57;3.47;;;;;;;1.90;72.25;103861.88;7400047;19;20389;-67
2022/03/19 03:57:41;;;;;;;9.50;3.95;;;;;;;1.87;72.18;103855.59;7400981;19;20031;-67
2022/03/19 04:00:12;;;;;;;11.40;3.70;;;;;;;1.83;72.61;103848.44;7400857;19;20035;-67
2022/03/19 04:02:40;;;;;;;9.82;4.47;;;;;;;1.80;72.22;103869.84;7398520;19;20026;-67
2022/03/19 04:05:10;;;;;;;10.50;3.50;;;;;;;1.77;72.88;103862.78;7398189;19;20026;-66
2022/03/19 04:07:41;;;;;;;16.75;4.43;;;;;;;1.75;72.88;103860.91;7398022;19;20018;-67
2022/03/19 04:10:10;;;;;;;15.02;4.57;;;;;;;1.74;72.50;103862.56;7401119;19;20018;-67
2022/03/19 04:12:38;;;;;;;14.25;4.35;;;;;;;1.74;72.83;103859.09;7400057;19;20022;-67
2022/03/19 04:15:08;;;;;;;13.52;4.40;;;;;;;1.72;72.96;103856.41;7397624;19;20025;-67
2022/03/19 04:17:37;;;;;;;16.35;4.53;;;;;;;1.71;73.16;103838.22;7397909;19;20026;-67
2022/03/19 04:20:06;;;;;;;14.68;4.07;;;;;;;1.69;73.15;103843.25;7400146;19;20022;-67
2022/03/19 04:22:42;;;;;;;15.85;4.47;;;;;;;1.67;73.60;103836.19;7399532;19;20019;-67
2022/03/19 04:25:14;;;;;;;16.33;4.85;;;;;;;1.65;73.41;103850.75;7400553;19;20011;-67
2022/03/19 04:27:42;;;;;;;18.67;3.90;;;;;;;1.59;73.61;103848.66;7400385;19;20023;-67
2022/03/19 04:30:14;;;;;;;12.40;4.38;;;;;;;1.58;74.07;103855.53;7396970;19;20393;-67
2022/03/19 04:32:43;;;;;;;9.75;3.42;;;;;;;1.55;74.37;103855.31;7399198;19;20018;-67
2022/03/19 04:37:55;;;;;;;21.67;4.32;;;;;;;1.48;74.43;103853.13;7399503;19;20006;-66
2022/03/19 04:40:23;;;;;;;17.38;4.20;;;;;;;1.46;74.88;103855.59;7399566;19;20027;-68
2022/03/19 04:42:51;;;;;;;16.83;3.92;;;;;;;1.45;74.70;103860.69;7398384;19;20023;-68
2022/03/19 04:45:20;;;;;;;16.73;4.50;;;;;;;1.40;75.50;103855.22;7397250;19;20018;-67
2022/03/19 04:47:48;;;;;;;11.85;4.22;;;;;;;1.40;75.31;103862.97;7399040;19;20582;-67
2022/03/19 04:50:16;;;;;;;19.80;4.93;;;;;;;1.38;75.34;103850.69;7398737;19;20028;-72
2022/03/19 04:52:45;;;;;;;22.70;5.05;;;;;;;1.36;75.62;103860.97;7397184;19;20022;-67
2022/03/19 04:55:16;;;;;;;17.10;4.28;;;;;;;1.33;75.85;103854.69;7398929;19;20032;-67
2022/03/19 04:57:45;;;;;;;15.75;5.25;;;;;;;1.28;75.76;103852.69;7399528;19;20040;-68
2022/03/19 05:00:16;;;;;;;13.65;4.18;;;;;;;1.27;76.75;103853.47;7398911;19;20019;-67
2022/03/19 05:02:44;;;;;;;20.42;4.50;;;;;;;1.24;76.26;103854.97;7398571;19;20098;-67
2022/03/19 05:05:13;;;;;;;17.75;5.50;;;;;;;1.22;75.82;103859.16;7398675;19;20035;-67
2022/03/19 05:07:41;;;;;;;16.77;5.28;;;;;;;1.17;76.00;103850.19;7398601;19;20023;-67
2022/03/19 05:12:54;;;;;;;19.83;4.88;;;;;;;1.14;75.93;103849.19;7398265;19;20363;-67
2022/03/19 05:15:23;;;;;;;19.95;5.40;;;;;;;1.10;76.42;103846.28;7398512;19;20027;-67
2022/03/19 05:17:51;;;;;;;21.38;6.13;;;;;;;1.12;76.63;103847.28;7398251;19;20035;-67
2022/03/19 05:20:19;;;;;;;16.20;6.32;;;;;;;1.09;76.46;103842.81;7398192;19;20022;-67
2022/03/19 05:22:47;;;;;;;18.73;5.05;;;;;;;1.08;76.83;103840.13;7396896;19;20496;-67
2022/03/19 05:25:15;;;;;;;18.65;5.18;;;;;;;1.06;76.79;103855.53;7397971;19;20027;-67
2022/03/19 05:27:43;;;;;;;13.02;4.90;;;;;;;1.04;76.92;103856.25;7397933;19;20018;-67
2022/03/19 05:30:14;;;;;;;18.95;6.47;;;;;;;1.04;76.73;103851.06;7397896;19;20018;-67
2022/03/19 05:32:42;;;;;;;18.70;5.78;;;;;;;1.01;76.84;103851.75;7397655;19;20014;-67
2022/03/19 05:35:11;;;;;;;16.67;5.25;;;;;;;1.03;77.00;103849.28;7397706;19;20015;-67
2022/03/19 05:37:39;;;;;;;18.38;5.78;;;;;;;1.04;77.40;103851.06;7395279;19;20543;-67
2022/03/19 05:40:09;;;;;;;19.63;6.40;;;;;;;1.03;77.48;103855.31;7397730;19;20040;-67
2022/03/19 05:42:37;;;;;;;19.45;5.50;;;;;;;1.00;77.49;103844.78;7397012;19;20022;-68
2022/03/19 05:45:06;;;;;;;20.58;6.18;;;;;;;0.98;77.84;103847.25;7395614;19;20022;-68
2022/03/19 05:47:36;;;;;;;15.98;5.68;;;;;;;0.96;77.69;103855.69;7395572;19;20027;-67
2022/03/19 05:50:05;;;;;;;14.52;6.13;;;;;;;0.97;77.93;103860.06;7395250;19;20484;-67
2022/03/19 05:52:33;;;;;;;22.30;5.55;;;;;;;0.96;77.58;103855.69;7394878;19;20019;-68
2022/03/19 05:55:01;;;;;;;18.05;6.30;;;;;;;0.96;77.72;103863.44;7395315;19;20022;-68
2022/03/19 05:57:29;;;;;;;19.13;6.57;;;;;;;0.95;77.80;103854.81;7394520;19;20019;-68
2022/03/19 05:59:58;;;;;;;20.95;6.90;;;;;;;0.95;77.62;103862.56;7395091;19;20023;-67
2022/03/19 06:02:26;;;;;;;26.85;7.47;;;;;;;0.95;77.96;103857.38;7396437;19;20039;-68
2022/03/19 06:04:57;;;;;;;13.27;5.57;;;;;;;0.97;78.39;103860.06;7394729;19;20519;-67
2022/03/19 06:07:25;;;;;;;19.05;6.88;;;;;;;0.96;78.41;103866.94;7397140;19;20020;-67
2022/03/19 06:09:54;;;;;;;19.40;7.45;;;;;;;0.96;79.23;103866.03;7396581;19;20035;-68
2022/03/19 06:12:22;;;;;;;21.95;6.25;;;;;;;0.95;78.91;103869.44;7396250;19;20041;-68
2022/03/19 06:14:53;;;;;;;20.90;7.13;;;;;;;0.95;78.94;103869.44;7396331;19;20014;-67
2022/03/19 06:17:21;;;;;;;19.80;6.65;;;;;;;0.96;79.61;103868.63;7396120;19;20026;-67
2022/03/19 06:19:49;;;;;;;22.40;7.43;;;;;;;0.94;80.08;103865.06;7395990;19;20018;-67
2022/03/19 06:22:20;;;;;;;18.98;6.32;;;;;;;0.98;79.73;103864.47;7394310;19;20022;-67
2022/03/19 06:24:48;;;;;;;21.90;7.38;;;;;;;1.00;80.66;103860.31;7396478;19;20018;-71
2022/03/19 06:27:16;;;;;;;24.73;7.68;;;;;;;1.02;80.95;103862.97;7394153;19;20018;-69
2022/03/19 06:29:44;;;;;;;22.33;7.25;;;;;;;1.05;81.55;103863.19;7395848;19;20045;-68
2022/03/19 06:32:12;;;;;;;23.27;7.25;;;;;;;1.08;80.82;103868.56;7394138;19;20027;-69
2022/03/19 06:34:40;;;;;;;19.30;6.93;;;;;;;1.13;80.58;103864.59;7395238;19;20391;-67
2022/03/19 06:37:21;;;;;;;17.35;7.40;;;;;;;1.18;81.11;103864.94;7394139;19;20026;-67
2022/03/19 06:39:56;;;;;;;16.60;6.07;;;;;;;1.24;80.86;103867.91;7393729;19;20010;-67
2022/03/19 06:42:25;;;;;;;17.00;6.60;;;;;;;1.26;81.57;103864.66;7394207;19;20030;-70
2022/03/19 06:44:53;;;;;;;22.23;7.50;;;;;;;1.31;81.57;103859.75;7395359;19;20041;-67
2022/03/19 06:47:21;;;;;;;19.70;7.00;;;;;;;1.37;81.26;103857.59;7394657;19;20022;-69
2022/03/19 06:49:50;;;;;;;18.55;6.57;;;;;;;1.40;82.16;103847.47;7395025;19;20031;-68
2022/03/19 06:52:20;;;;;;;17.52;6.07;;;;;;;1.46;82.33;103847.81;7393828;19;20011;-67
2022/03/19 06:54:48;;;;;;;22.23;6.63;;;;;;;1.52;82.06;103844.75;7394660;19;20078;-66
2022/03/19 06:57:18;;;;;;;22.70;7.05;;;;;;;1.61;81.90;103857.41;7393705;19;20031;-68
2022/03/19 06:59:47;;;;;;;18.42;6.13;;;;;;;1.68;81.90;103853.53;7395151;19;20031;-68
2022/03/19 07:02:15;;;;;;;19.27;6.35;;;;;;;1.75;82.43;103847.97;7394608;19;20022;-68
2022/03/19 07:04:43;;;;;;;17.98;6.45;;;;;;;1.83;81.48;103849.31;7393003;19;20031;-69
2022/03/19 07:07:11;;;;;;;18.98;7.82;;;;;;;1.92;81.09;103849.03;7394588;19;20023;-67
2022/03/19 07:09:46;;;;;;;15.85;6.28;;;;;;;1.97;81.97;103850.22;7401261;19;20373;-68
2022/03/19 07:12:14;;;;;;;15.68;5.55;;;;;;;2.04;81.28;103844.63;7399771;19;20018;-68
2022/03/19 07:14:44;;;;;;;16.33;6.63;;;;;;;2.11;80.85;103849.41;7401765;19;20334;-68
2022/03/19 07:17:13;;;;;;;19.45;6.10;;;;;;;2.19;80.72;103842.13;7400839;19;20035;-69
2022/03/19 07:19:41;;;;;;;14.85;5.82;;;;;;;2.27;80.20;103842.59;7402053;19;20018;-71
2022/03/19 07:22:09;;;;;;;17.50;5.43;;;;;;;2.33;80.66;103842.97;7401595;19;20014;-69
2022/03/19 07:24:38;;;;;;;19.10;5.70;;;;;;;2.38;80.19;103836.38;7400756;19;20479;-68
2022/03/19 07:27:07;;;;;;;19.20;5.63;;;;;;;2.46;80.70;103841.16;7401793;19;20086;-67
2022/03/19 07:29:35;;;;;;;17.42;5.55;;;;;;;2.52;79.63;103839.81;7402477;19;20029;-69
2022/03/19 07:32:06;;;;;;;17.02;5.00;;;;;;;2.58;79.93;103839.31;7399077;19;20019;-68
2022/03/19 07:34:35;;;;;;;21.05;5.63;;;;;;;2.64;79.47;103839.69;7398524;19;20471;-70
2022/03/19 07:37:03;;;;;;;16.70;5.40;;;;;;;2.70;79.32;103837.44;7398433;19;20018;-70
2022/03/19 07:39:32;;;;;;;11.07;5.22;;;;;;;2.77;79.02;103837.03;7400975;19;20022;-68
2022/03/19 07:41:57;;;;;;;14.43;5.30;;;;;;;2.84;78.85;103835.69;7401213;19;20035;-68
2022/03/19 07:44:25;;;;;;;18.00;5.10;;;;;;;2.91;78.87;103834.38;7398527;19;20022;-67
2022/03/19 07:46:53;;;;;;;12.80;4.10;;;;;;;2.97;78.29;103834.75;7401476;19;20014;-67
2022/03/19 07:49:24;;;;;;;19.00;4.43;;;;;;;3.06;78.14;103835.28;7398584;19;20019;-67
2022/03/19 07:51:58;;;;;;;14.60;5.68;;;;;;;3.14;78.29;103825.34;7399265;19;20023;-67
2022/03/19 07:54:27;;;;;;;;;;;;;;;3.23;78.52;103825.88;7399161;19;20018;-66
2022/03/19 07:56:56;;;;;;;15.88;3.95;;;;;;;3.31;77.65;103822.84;7399556;19;20359;-66
2022/03/19 07:59:24;;;;;;;12.07;4.03;;;;;;;3.37;77.51;103820.59;7400442;19;20379;-67
2022/03/19 08:01:52;;;;;;;16.52;4.72;;;;;;;3.46;77.16;103818.53;7401436;19;20022;-67
2022/03/19 08:04:20;;;;;;;13.90;5.05;;;;;;;3.54;76.85;103808.59;7398111;19;20035;-68
2022/03/19 08:06:53;;;;;;;16.33;4.07;;;;;;;3.63;76.66;103805.59;7400273;19;20398;-67
2022/03/19 08:09:22;;;;;;;9.77;2.72;;;;;;;3.70;76.43;103808.66;7400022;19;20518;-67
2022/03/19 08:11:50;;;;;;;10.88;3.17;;;;;;;3.79;76.15;103804.78;7397961;19;20041;-66
2022/03/19 08:14:19;;;;;;;14.45;3.15;;;;;;;3.86;75.83;103804.31;7397572;19;20015;-67
2022/03/19 08:16:49;;;;;;;18.90;4.35;;;;;;;3.94;75.63;103799.53;7397293;19;20382;-67
2022/03/19 08:19:19;;;;;;;14.48;3.35;;;;;;;4.00;75.44;103795.56;7399764;19;20029;-67
2022/03/19 08:21:47;;;;;;;12.13;3.42;;;;;;;4.07;74.88;103795.09;7397580;19;20022;-65
2022/03/19 08:24:18;;;;;;;12.85;3.10;;;;;;;4.14;74.89;103796.31;7397465;19;20488;-67
2022/03/19 08:26:46;;;;;;;13.02;3.03;;;;;;;4.22;74.41;103794.13;7400468;19;20022;-67
2022/03/19 08:29:14;;;;;;;10.73;2.83;;;;;;;4.26;74.18;103796.09;7397359;19;20041;-67
2022/03/19 08:31:42;;;;;;;38.08;16.25;;;;;;;4.35;74.17;103796.56;7397126;19;20027;-67
2022/03/19 08:34:10;;;;;;;11.25;4.35;;;;;;;4.44;74.00;103803.97;7397097;19;20022;-67
2022/03/19 08:36:39;;;;;;;17.30;6.65;;;;;;;4.53;73.73;103798.34;7397119;19;20023;-68
2022/03/19 08:41:50;;;;;;;11.13;3.30;;;;;;;4.70;73.09;103807.03;7399750;19;20018;-67
2022/03/19 08:44:18;;;;;;;13.00;3.85;;;;;;;4.77;72.89;103795.25;7396880;19;20036;-68
2022/03/19 08:46:46;;;;;;;12.40;3.20;;;;;;;4.83;72.75;103791.25;7399239;19;20018;-67
2022/03/19 08:49:15;;;;;;;11.88;3.30;;;;;;;4.92;72.47;103789.94;7396960;19;20040;-67
2022/03/19 08:51:43;;;;;;;15.38;3.55;;;;;;;4.99;72.11;103790.31;7397650;19;20011;-67
2022/03/19 08:54:14;;;;;;;13.30;2.97;;;;;;;5.08;71.52;103781.16;7396982;19;20035;-67
2022/03/19 08:56:42;;;;;;;9.00;2.75;;;;;;;5.16;71.48;103783.34;7396855;19;20018;-67
2022/03/19 08:59:16;;;;;;;7.55;2.35;;;;;;;5.24;70.73;103782.84;7396501;19;20018;-68
2022/03/19 09:01:45;;;;;;;14.40;2.47;;;;;;;5.32;70.27;103768.47;7399090;19;20090;-68
2022/03/19 09:04:14;;;;;;;8.63;2.28;;;;;;;5.35;70.39;103755.63;7396805;19;20019;-66
2022/03/19 09:06:42;;;;;;;12.95;3.60;;;;;;;5.46;70.12;103764.84;7398812;19;20027;-67
2022/03/19 09:09:13;;;;;;;10.30;2.35;;;;;;;5.53;69.79;103763.41;7398653;19;20018;-66
2022/03/19 09:11:41;;;;;;;9.70;2.60;;;;;;;5.59;69.40;103763.69;7396729;19;20011;-66
2022/03/19 09:14:10;;;;;;;11.15;2.65;;;;;;;5.65;68.94;103748.38;7396215;19;20512;-67
2022/03/19 09:16:41;;;;;;;9.10;2.30;;;;;;;5.71;67.78;103737.31;7398040;19;20105;-67
2022/03/19 09:19:09;;;;;;;10.48;3.08;;;;;;;5.79;68.10;103735.97;7398623;19;20018;-66
2022/03/19 09:21:37;;;;;;;10.20;2.83;;;;;;;5.87;68.09;103738.94;7397640;19;20479;-67
2022/03/19 09:24:07;;;;;;;7.75;2.10;;;;;;;5.95;67.16;103731.47;7395706;19;20041;-67
2022/03/19 09:26:35;;;;;;;11.82;3.05;;;;;;;6.05;67.51;103730.22;7397817;19;20019;-68
2022/03/19 09:29:03;;;;;;;6.78;2.30;;;;;;;6.13;66.48;103727.13;7397825;19;20039;-68
2022/03/19 09:31:31;;;;;;;7.32;2.30;;;;;;;6.22;66.34;103729.25;7394110;19;20018;-67
2022/03/19 09:34:02;;;;;;;9.55;2.88;;;;;;;6.31;66.00;103726.16;7396453;19;20019;-68
2022/03/19 09:36:30;;;;;;;9.68;2.58;;;;;;;6.40;66.02;103728.28;7396391;19;20527;-68
2022/03/19 09:38:58;;;;;;;9.13;2.63;;;;;;;6.49;64.93;103732.16;7394792;19;20068;-66
2022/03/19 09:41:26;;;;;;;9.63;2.05;;;;;;;6.59;64.61;103727.34;7394994;19;20018;-66
2022/03/19 09:43:54;;;;;;;9.30;1.92;;;;;;;6.68;64.55;103723.44;7394598;19;20355;-67
2022/03/19 09:46:22;;;;;;;6.68;2.28;;;;;;;6.78;64.17;103719.47;7395621;19;20035;-67
2022/03/19 09:48:53;;;;;;;8.43;2.45;;;;;;;6.88;63.19;103723.34;7396789;19;20381;-67
2022/03/19 09:51:25;;;;;;;8.15;2.25;;;;;;;6.96;63.40;103719.34;7396387;19;20011;-67
2022/03/19 09:53:53;;;;;;;8.30;2.20;;;;;;;7.05;62.66;103716.22;7395747;19;20018;-68
2022/03/19 09:56:22;;;;;;;12.35;2.72;;;;;;;7.14;62.15;103723.50;7396718;19;20073;-67
2022/03/19 09:58:52;;;;;;;7.90;2.25;;;;;;;7.22;62.29;103711.69;7395050;19;20035;-67
2022/03/19 10:01:21;;;;;;;7.70;1.90;;;;;;;7.30;61.80;103712.88;7396874;19;20022;-65
2022/03/19 10:03:51;;;;;;;5.75;1.80;;;;;;;7.41;61.35;103712.41;7394911;19;20035;-66
2022/03/19 10:09:03;;;;;;;9.90;2.72;;;;;;;7.55;60.26;103700.75;7396598;19;20094;-67
2022/03/19 10:11:33;;;;;;;6.43;2.13;;;;;;;7.63;60.29;103701.03;7395540;19;20015;-69
2022/03/19 10:14:02;;;;;;;7.90;2.08;;;;;;;7.74;60.20;103696.25;7394372;19;20029;-66
2022/03/19 10:16:31;;;;;;;9.18;1.85;;;;;;;7.85;59.71;103696.63;7394243;19;20018;-68
2022/03/19 10:19:01;;;;;;;10.05;2.20;;;;;;;7.94;59.32;103682.16;7394008;19;20014;-65
2022/03/19 10:21:30;;;;;;;7.05;2.40;;;;;;;8.03;59.43;103680.75;7394385;19;20026;-66
2022/03/19 10:23:59;;;;;;;5.15;1.92;;;;;;;8.13;57.37;103675.00;7394183;19;20035;-66
2022/03/19 10:26:33;;;;;;;6.82;2.15;;;;;;;8.27;55.75;103678.09;7395132;19;20014;-67
2022/03/19 10:29:02;;;;;;;5.32;1.52;;;;;;;8.39;56.67;103675.00;7395493;19;20070;-67
2022/03/19 10:31:35;;;;;;;10.90;1.77;;;;;;;8.48;55.42;103676.25;7393598;19;20019;-67
2022/03/19 10:34:03;;;;;;;10.77;2.50;;;;;;;8.52;51.71;103664.16;7393573;19;20022;-67
2022/03/19 10:36:33;;;;;;;6.53;2.75;;;;;;;8.59;49.78;103683.56;7395624;19;20011;-68
2022/03/19 10:39:02;;;;;;;7.10;2.30;;;;;;;8.61;51.85;103667.06;7394154;19;20045;-68
2022/03/19 10:41:36;;;;;;;5.03;1.95;;;;;;;8.62;49.83;103675.84;7394553;19;20362;-66
2022/03/19 10:44:16;;;;;;;;;;;;;;;8.62;49.86;103684.56;7391603;19;20019;-67
2022/03/19 10:46:50;;;;;;;8.52;3.33;;;;;;;8.66;50.80;103682.03;7395961;19;19918;-67
2022/03/19 10:49:20;;;;;;;8.88;2.30;;;;;;;8.72;52.04;103677.00;7395171;19;20014;-67
2022/03/19 10:51:49;;;;;;;7.05;2.88;;;;;;;8.76;51.71;103676.28;7393903;19;20015;-67
2022/03/19 10:54:18;;;;;;;9.95;2.75;;;;;;;8.76;51.48;103671.06;7393112;19;20018;-67
2022/03/19 10:56:50;;;;;;;8.70;3.28;;;;;;;8.77;50.87;103681.56;7394718;19;20413;-67
2022/03/19 10:59:19;;;;;;;9.40;3.70;;;;;;;8.82;52.49;103673.88;7393954;19;20039;-68
2022/03/19 11:01:49;;;;;;;11.05;3.35;;;;;;;8.88;50.79;103674.06;7394864;19;20505;-68
2022/03/19 11:04:17;;;;;;;9.93;3.10;;;;;;;8.90;52.13;103672.38;7393797;19;20459;-66
2022/03/19 11:06:47;;;;;;;13.02;3.28;;;;;;;8.92;52.44;103672.44;7393278;19;20023;-67
2022/03/19 11:09:17;;;;;;;19.60;6.03;;;;;;;8.95;53.11;103670.81;7393727;19;20018;-67
2022/03/19 11:11:52;;;;;;;14.15;8.40;;;;;;;9.02;51.72;103666.63;7394320;19;20448;-67
2022/03/19 11:14:25;;;;;;;14.45;6.30;;;;;;;9.09;52.78;103660.75;7392874;19;20018;-66
2022/03/19 11:19:42;;;;;;;18.35;5.55;;;;;;;9.19;52.69;103651.47;7394765;19;20022;-66
2022/03/19 11:22:10;;;;;;;8.93;3.28;;;;;;;9.22;52.58;103648.91;7393907;19;20039;-65
2022/03/19 11:24:54;;;;;;;10.27;3.95;;;;;;;9.25;52.70;103654.28;7394486;19;20063;-66
2022/03/19 11:27:26;;;;;;;6.53;3.50;;;;;;;9.28;51.29;103651.72;7394326;19;20029;-65
2022/03/19 11:29:54;;;;;;;11.52;3.58;;;;;;;9.33;52.21;103648.38;7392170;19;20359;-65
2022/03/19 11:32:24;;;;;;;10.60;4.22;;;;;;;9.31;52.54;103642.19;7392136;19;20082;-65
2022/03/19 11:34:56;;;;;;;9.93;4.35;;;;;;;9.31;52.41;103647.44;7392253;19;20022;-65
2022/03/19 11:37:25;;;;;;;12.65;4.47;;;;;;;9.33;53.09;103643.16;7394008;19;20082;-65
2022/03/19 11:40:29;;;;;;;9.20;4.10;;;;;;;9.41;52.69;103633.75;7391513;19;20019;-65
2022/03/19 11:43:04;;;;;;;7.20;3.47;;;;;;;9.53;52.94;103636.75;7392106;19;20026;-66
2022/03/19 11:45:40;;;;;;;10.90;4.35;;;;;;;9.58;52.14;103643.00;7391790;19;20030;-64
2022/03/19 11:48:46;;;;;;;7.75;3.90;;;;;;;9.57;52.32;103641.22;7391170;19;20014;-67
2022/03/19 11:51:22;;;;;;;11.80;4.95;;;;;;;9.54;53.08;103641.16;7391067;19;20021;-68
2022/03/19 11:53:55;;;;;;;6.18;3.30;;;;;;;9.54;53.02;103643.78;7393083;19;20035;-67